Terminal Aerodrome Forecast
Issued by NWS Melbourne, FL

Home | Current Version | Previous Version | Text Only | Print | Product List | Glossary On
Versions: 1 2 3 4 5 6 7 8 9 10 11 12 13
000
FTUS42 KMLB 280526
TAFVRB
TAF
KVRB 280526Z 2806/2906 VRB03KT P6SM SCT250
     FM281600 09009KT P6SM VCTS SCT035CB SCT250
      TEMPO 2817/2820 3SM TSRA BKN035CB BKN050
     FM282100 10008KT P6SM VCSH SCT040 SCT120 BKN250
     FM290000 10005KT P6SM FEW070 BKN250=

USA.gov is the U.S. government's official web portal to all federal, state and local government web resources and services.